sensor_id;sensor_type;location;lat;lon;timestamp;P1;durP1;ratioP1;P2;durP2;ratioP2
4198;SDS011;2113;50.946;14.610;2022-09-23T00:01:23;8.68;;;5.75;;
4198;SDS011;2113;50.946;14.610;2022-09-23T00:03:51;7.57;;;4.85;;
4198;SDS011;2113;50.946;14.610;2022-09-23T00:06:20;8.38;;;5.50;;
4198;SDS011;2113;50.946;14.610;2022-09-23T00:08:49;8.85;;;5.47;;
4198;SDS011;2113;50.946;14.610;2022-09-23T00:11:19;7.22;;;4.97;;
4198;SDS011;2113;50.946;14.610;2022-09-23T00:13:48;9.50;;;5.78;;
4198;SDS011;2113;50.946;14.610;2022-09-23T00:16:20;8.55;;;5.40;;
4198;SDS011;2113;50.946;14.610;2022-09-23T00:18:50;8.32;;;5.13;;
4198;SDS011;2113;50.946;14.610;2022-09-23T00:21:18;10.40;;;5.60;;
4198;SDS011;2113;50.946;14.610;2022-09-23T00:27:26;8.38;;;5.05;;
4198;SDS011;2113;50.946;14.610;2022-09-23T00:29:55;9.10;;;5.40;;
4198;SDS011;2113;50.946;14.610;2022-09-23T00:32:24;8.70;;;4.97;;
4198;SDS011;2113;50.946;14.610;2022-09-23T00:34:52;8.63;;;5.00;;
4198;SDS011;2113;50.946;14.610;2022-09-23T00:37:20;9.70;;;5.13;;
4198;SDS011;2113;50.946;14.610;2022-09-23T00:39:48;8.90;;;5.68;;
4198;SDS011;2113;50.946;14.610;2022-09-23T00:42:17;7.90;;;5.28;;
4198;SDS011;2113;50.946;14.610;2022-09-23T00:44:48;6.82;;;4.78;;
4198;SDS011;2113;50.946;14.610;2022-09-23T00:47:19;6.00;;;4.50;;
4198;SDS011;2113;50.946;14.610;2022-09-23T00:49:52;9.73;;;4.88;;
4198;SDS011;2113;50.946;14.610;2022-09-23T00:52:28;10.00;;;5.35;;
4198;SDS011;2113;50.946;14.610;2022-09-23T00:54:58;7.57;;;4.95;;
4198;SDS011;2113;50.946;14.610;2022-09-23T00:57:29;7.15;;;4.60;;
4198;SDS011;2113;50.946;14.610;2022-09-23T00:59:58;6.82;;;4.20;;
4198;SDS011;2113;50.946;14.610;2022-09-23T01:02:26;8.00;;;4.40;;
4198;SDS011;2113;50.946;14.610;2022-09-23T01:04:56;6.53;;;4.43;;
4198;SDS011;2113;50.946;14.610;2022-09-23T01:07:25;5.22;;;3.67;;
4198;SDS011;2113;50.946;14.610;2022-09-23T01:09:53;5.43;;;3.88;;
4198;SDS011;2113;50.946;14.610;2022-09-23T01:12:27;6.65;;;4.05;;
4198;SDS011;2113;50.946;14.610;2022-09-23T01:15:07;5.05;;;3.50;;
4198;SDS011;2113;50.946;14.610;2022-09-23T01:17:43;8.80;;;4.18;;
4198;SDS011;2113;50.946;14.610;2022-09-23T01:23:22;6.10;;;3.50;;
4198;SDS011;2113;50.946;14.610;2022-09-23T01:26:18;5.15;;;3.80;;
4198;SDS011;2113;50.946;14.610;2022-09-23T01:29:11;7.50;;;3.92;;
4198;SDS011;2113;50.946;14.610;2022-09-23T01:32:04;6.95;;;3.08;;
4198;SDS011;2113;50.946;14.610;2022-09-23T01:34:43;6.55;;;3.67;;
4198;SDS011;2113;50.946;14.610;2022-09-23T01:37:17;4.72;;;2.97;;
4198;SDS011;2113;50.946;14.610;2022-09-23T01:39:55;6.72;;;3.78;;
4198;SDS011;2113;50.946;14.610;2022-09-23T01:42:32;5.20;;;3.83;;
4198;SDS011;2113;50.946;14.610;2022-09-23T01:45:05;5.13;;;3.10;;
4198;SDS011;2113;50.946;14.610;2022-09-23T01:47:40;5.50;;;3.75;;
4198;SDS011;2113;50.946;14.610;2022-09-23T01:50:14;8.40;;;3.70;;
4198;SDS011;2113;50.946;14.610;2022-09-23T01:53:03;4.20;;;2.58;;
4198;SDS011;2113;50.946;14.610;2022-09-23T01:55:38;6.18;;;3.55;;
4198;SDS011;2113;50.946;14.610;2022-09-23T01:58:11;8.27;;;3.20;;
4198;SDS011;2113;50.946;14.610;2022-09-23T02:00:42;7.55;;;3.78;;
4198;SDS011;2113;50.946;14.610;2022-09-23T02:03:20;4.97;;;3.63;;
4198;SDS011;2113;50.946;14.610;2022-09-23T02:05:53;6.30;;;3.70;;
4198;SDS011;2113;50.946;14.610;2022-09-23T02:08:25;6.07;;;3.70;;
4198;SDS011;2113;50.946;14.610;2022-09-23T02:11:00;4.72;;;2.95;;
4198;SDS011;2113;50.946;14.610;2022-09-23T02:13:35;6.93;;;4.93;;
4198;SDS011;2113;50.946;14.610;2022-09-23T02:16:09;5.13;;;3.50;;
4198;SDS011;2113;50.946;14.610;2022-09-23T02:18:44;5.45;;;3.30;;
4198;SDS011;2113;50.946;14.610;2022-09-23T02:21:15;7.15;;;3.47;;
4198;SDS011;2113;50.946;14.610;2022-09-23T02:23:47;4.65;;;3.47;;
4198;SDS011;2113;50.946;14.610;2022-09-23T02:26:19;3.35;;;2.47;;
4198;SDS011;2113;50.946;14.610;2022-09-23T02:28:54;12.80;;;3.88;;
4198;SDS011;2113;50.946;14.610;2022-09-23T02:31:35;8.65;;;4.03;;
4198;SDS011;2113;50.946;14.610;2022-09-23T02:37:02;7.50;;;3.15;;
4198;SDS011;2113;50.946;14.610;2022-09-23T02:39:37;5.15;;;3.40;;
4198;SDS011;2113;50.946;14.610;2022-09-23T02:42:15;4.60;;;3.20;;
4198;SDS011;2113;50.946;14.610;2022-09-23T02:44:48;4.60;;;2.53;;
4198;SDS011;2113;50.946;14.610;2022-09-23T02:47:16;4.70;;;3.05;;
4198;SDS011;2113;50.946;14.610;2022-09-23T02:49:50;5.63;;;2.90;;
4198;SDS011;2113;50.946;14.610;2022-09-23T02:52:18;7.25;;;3.22;;
4198;SDS011;2113;50.946;14.610;2022-09-23T02:54:46;5.80;;;3.28;;
4198;SDS011;2113;50.946;14.610;2022-09-23T02:57:14;6.57;;;3.15;;
4198;SDS011;2113;50.946;14.610;2022-09-23T02:59:42;5.80;;;3.33;;
4198;SDS011;2113;50.946;14.610;2022-09-23T03:02:13;5.07;;;3.58;;
4198;SDS011;2113;50.946;14.610;2022-09-23T03:05:06;5.40;;;3.25;;
4198;SDS011;2113;50.946;14.610;2022-09-23T03:07:46;5.90;;;3.85;;
4198;SDS011;2113;50.946;14.610;2022-09-23T03:10:24;6.55;;;3.55;;
4198;SDS011;2113;50.946;14.610;2022-09-23T03:12:59;6.00;;;3.38;;
4198;SDS011;2113;50.946;14.610;2022-09-23T03:15:37;5.95;;;3.13;;
4198;SDS011;2113;50.946;14.610;2022-09-23T03:18:12;7.30;;;3.17;;
4198;SDS011;2113;50.946;14.610;2022-09-23T03:20:45;6.13;;;3.92;;
4198;SDS011;2113;50.946;14.610;2022-09-23T03:23:16;7.75;;;3.80;;
4198;SDS011;2113;50.946;14.610;2022-09-23T03:25:51;5.40;;;2.85;;
4198;SDS011;2113;50.946;14.610;2022-09-23T03:28:21;6.03;;;3.67;;
4198;SDS011;2113;50.946;14.610;2022-09-23T03:30:51;5.13;;;2.80;;
4198;SDS011;2113;50.946;14.610;2022-09-23T03:33:21;6.97;;;3.38;;
4198;SDS011;2113;50.946;14.610;2022-09-23T03:35:57;6.88;;;3.65;;
4198;SDS011;2113;50.946;14.610;2022-09-23T03:38:47;10.48;;;3.88;;
4198;SDS011;2113;50.946;14.610;2022-09-23T03:41:21;6.75;;;2.85;;
4198;SDS011;2113;50.946;14.610;2022-09-23T03:43:55;7.25;;;3.85;;
4198;SDS011;2113;50.946;14.610;2022-09-23T03:46:25;5.97;;;3.17;;
4198;SDS011;2113;50.946;14.610;2022-09-23T03:48:56;9.40;;;3.03;;
4198;SDS011;2113;50.946;14.610;2022-09-23T03:51:32;4.63;;;2.90;;
4198;SDS011;2113;50.946;14.610;2022-09-23T03:54:00;6.25;;;3.20;;
4198;SDS011;2113;50.946;14.610;2022-09-23T03:56:27;8.02;;;3.92;;
4198;SDS011;2113;50.946;14.610;2022-09-23T03:58:55;5.88;;;3.28;;
4198;SDS011;2113;50.946;14.610;2022-09-23T04:01:23;5.90;;;3.10;;
4198;SDS011;2113;50.946;14.610;2022-09-23T04:03:51;6.18;;;2.92;;
4198;SDS011;2113;50.946;14.610;2022-09-23T04:06:19;4.95;;;3.30;;
4198;SDS011;2113;50.946;14.610;2022-09-23T04:08:49;4.55;;;2.92;;
4198;SDS011;2113;50.946;14.610;2022-09-23T04:11:17;8.55;;;4.00;;
4198;SDS011;2113;50.946;14.610;2022-09-23T04:13:45;11.77;;;3.25;;
4198;SDS011;2113;50.946;14.610;2022-09-23T04:16:13;9.43;;;4.32;;
4198;SDS011;2113;50.946;14.610;2022-09-23T04:18:41;6.53;;;3.80;;
4198;SDS011;2113;50.946;14.610;2022-09-23T04:21:08;6.22;;;3.35;;
4198;SDS011;2113;50.946;14.610;2022-09-23T04:23:36;6.70;;;3.85;;
4198;SDS011;2113;50.946;14.610;2022-09-23T04:26:06;11.88;;;4.38;;
4198;SDS011;2113;50.946;14.610;2022-09-23T04:28:34;10.52;;;6.35;;
4198;SDS011;2113;50.946;14.610;2022-09-23T04:31:02;18.52;;;8.98;;
4198;SDS011;2113;50.946;14.610;2022-09-23T04:33:32;13.02;;;7.13;;
4198;SDS011;2113;50.946;14.610;2022-09-23T04:36:00;7.32;;;3.97;;
4198;SDS011;2113;50.946;14.610;2022-09-23T04:38:28;7.75;;;4.60;;
4198;SDS011;2113;50.946;14.610;2022-09-23T04:40:56;7.15;;;4.13;;
4198;SDS011;2113;50.946;14.610;2022-09-23T04:43:25;7.68;;;3.60;;
4198;SDS011;2113;50.946;14.610;2022-09-23T04:45:57;6.18;;;2.95;;
4198;SDS011;2113;50.946;14.610;2022-09-23T04:48:26;7.93;;;3.80;;
4198;SDS011;2113;50.946;14.610;2022-09-23T04:51:00;5.95;;;3.67;;
4198;SDS011;2113;50.946;14.610;2022-09-23T04:53:30;5.07;;;2.85;;
4198;SDS011;2113;50.946;14.610;2022-09-23T04:56:00;8.80;;;2.90;;
4198;SDS011;2113;50.946;14.610;2022-09-23T04:58:29;12.00;;;4.13;;
4198;SDS011;2113;50.946;14.610;2022-09-23T05:00:58;4.72;;;2.90;;
4198;SDS011;2113;50.946;14.610;2022-09-23T05:03:34;5.82;;;3.72;;
4198;SDS011;2113;50.946;14.610;2022-09-23T05:06:02;7.43;;;3.97;;
4198;SDS011;2113;50.946;14.610;2022-09-23T05:08:30;8.68;;;4.60;;
4198;SDS011;2113;50.946;14.610;2022-09-23T05:10:58;8.23;;;4.00;;
4198;SDS011;2113;50.946;14.610;2022-09-23T05:13:27;7.15;;;3.22;;
4198;SDS011;2113;50.946;14.610;2022-09-23T05:15:59;7.05;;;3.40;;
4198;SDS011;2113;50.946;14.610;2022-09-23T05:18:29;5.63;;;3.40;;
4198;SDS011;2113;50.946;14.610;2022-09-23T05:20:58;9.30;;;4.20;;
4198;SDS011;2113;50.946;14.610;2022-09-23T05:23:26;6.90;;;4.25;;
4198;SDS011;2113;50.946;14.610;2022-09-23T05:25:55;7.97;;;4.68;;
4198;SDS011;2113;50.946;14.610;2022-09-23T05:28:24;7.25;;;4.38;;
4198;SDS011;2113;50.946;14.610;2022-09-23T05:30:59;10.20;;;4.57;;
4198;SDS011;2113;50.946;14.610;2022-09-23T05:33:57;12.82;;;4.55;;
4198;SDS011;2113;50.946;14.610;2022-09-23T05:36:27;15.45;;;7.68;;
4198;SDS011;2113;50.946;14.610;2022-09-23T05:39:03;13.98;;;4.78;;
4198;SDS011;2113;50.946;14.610;2022-09-23T05:41:31;7.50;;;4.43;;
4198;SDS011;2113;50.946;14.610;2022-09-23T05:44:00;8.73;;;5.00;;
4198;SDS011;2113;50.946;14.610;2022-09-23T05:46:30;6.28;;;4.68;;
4198;SDS011;2113;50.946;14.610;2022-09-23T05:48:58;8.23;;;5.00;;
4198;SDS011;2113;50.946;14.610;2022-09-23T05:51:29;9.25;;;4.30;;
4198;SDS011;2113;50.946;14.610;2022-09-23T05:53:58;7.82;;;4.55;;
4198;SDS011;2113;50.946;14.610;2022-09-23T05:56:28;7.75;;;4.90;;
4198;SDS011;2113;50.946;14.610;2022-09-23T05:58:57;9.45;;;5.40;;
4198;SDS011;2113;50.946;14.610;2022-09-23T06:01:27;8.80;;;5.57;;
4198;SDS011;2113;50.946;14.610;2022-09-23T06:04:00;9.70;;;5.85;;
4198;SDS011;2113;50.946;14.610;2022-09-23T06:06:29;9.18;;;5.88;;
4198;SDS011;2113;50.946;14.610;2022-09-23T06:08:59;8.05;;;6.35;;
4198;SDS011;2113;50.946;14.610;2022-09-23T06:11:28;12.38;;;8.10;;
4198;SDS011;2113;50.946;14.610;2022-09-23T06:13:57;8.57;;;6.00;;
4198;SDS011;2113;50.946;14.610;2022-09-23T06:16:27;12.02;;;7.38;;
4198;SDS011;2113;50.946;14.610;2022-09-23T06:18:57;13.77;;;9.13;;
4198;SDS011;2113;50.946;14.610;2022-09-23T06:21:31;14.18;;;10.10;;
4198;SDS011;2113;50.946;14.610;2022-09-23T06:23:59;12.82;;;9.30;;
4198;SDS011;2113;50.946;14.610;2022-09-23T06:26:28;12.80;;;8.52;;
4198;SDS011;2113;50.946;14.610;2022-09-23T06:28:59;22.10;;;12.15;;
4198;SDS011;2113;50.946;14.610;2022-09-23T06:31:28;17.05;;;11.20;;
4198;SDS011;2113;50.946;14.610;2022-09-23T06:33:59;14.68;;;8.77;;
4198;SDS011;2113;50.946;14.610;2022-09-23T06:36:38;20.60;;;11.73;;
4198;SDS011;2113;50.946;14.610;2022-09-23T06:39:10;13.00;;;8.55;;
4198;SDS011;2113;50.946;14.610;2022-09-23T06:41:38;11.25;;;9.23;;
4198;SDS011;2113;50.946;14.610;2022-09-23T06:44:10;13.57;;;8.90;;
4198;SDS011;2113;50.946;14.610;2022-09-23T06:46:38;13.90;;;7.95;;
4198;SDS011;2113;50.946;14.610;2022-09-23T06:49:08;12.07;;;7.90;;
4198;SDS011;2113;50.946;14.610;2022-09-23T06:51:36;12.32;;;8.80;;
4198;SDS011;2113;50.946;14.610;2022-09-23T06:54:03;13.00;;;8.38;;
4198;SDS011;2113;50.946;14.610;2022-09-23T06:56:32;11.30;;;8.25;;
4198;SDS011;2113;50.946;14.610;2022-09-23T06:59:05;12.60;;;7.50;;
4198;SDS011;2113;50.946;14.610;2022-09-23T07:01:34;14.32;;;9.18;;
4198;SDS011;2113;50.946;14.610;2022-09-23T07:04:02;13.52;;;7.80;;
4198;SDS011;2113;50.946;14.610;2022-09-23T07:06:31;10.43;;;6.45;;
4198;SDS011;2113;50.946;14.610;2022-09-23T07:08:59;7.90;;;6.15;;
4198;SDS011;2113;50.946;14.610;2022-09-23T07:11:28;7.15;;;5.18;;
4198;SDS011;2113;50.946;14.610;2022-09-23T07:13:56;8.48;;;5.20;;
4198;SDS011;2113;50.946;14.610;2022-09-23T07:16:24;8.60;;;5.63;;
4198;SDS011;2113;50.946;14.610;2022-09-23T07:18:53;7.70;;;4.97;;
4198;SDS011;2113;50.946;14.610;2022-09-23T07:21:21;8.77;;;5.72;;
4198;SDS011;2113;50.946;14.610;2022-09-23T07:23:50;8.35;;;5.03;;
4198;SDS011;2113;50.946;14.610;2022-09-23T07:26:19;8.63;;;5.15;;
4198;SDS011;2113;50.946;14.610;2022-09-23T07:28:51;6.20;;;5.05;;
4198;SDS011;2113;50.946;14.610;2022-09-23T07:31:21;6.82;;;5.32;;
4198;SDS011;2113;50.946;14.610;2022-09-23T07:34:03;7.57;;;5.90;;
4198;SDS011;2113;50.946;14.610;2022-09-23T07:36:31;8.15;;;5.50;;
4198;SDS011;2113;50.946;14.610;2022-09-23T07:39:04;7.82;;;6.00;;
4198;SDS011;2113;50.946;14.610;2022-09-23T07:41:32;6.78;;;5.30;;
4198;SDS011;2113;50.946;14.610;2022-09-23T07:44:01;9.45;;;5.82;;
4198;SDS011;2113;50.946;14.610;2022-09-23T07:46:32;7.55;;;5.70;;
4198;SDS011;2113;50.946;14.610;2022-09-23T07:49:03;6.28;;;5.55;;
4198;SDS011;2113;50.946;14.610;2022-09-23T07:51:32;8.43;;;6.55;;
4198;SDS011;2113;50.946;14.610;2022-09-23T07:54:04;11.18;;;6.50;;
4198;SDS011;2113;50.946;14.610;2022-09-23T07:56:34;6.85;;;5.47;;
4198;SDS011;2113;50.946;14.610;2022-09-23T07:59:03;6.88;;;5.82;;
4198;SDS011;2113;50.946;14.610;2022-09-23T08:01:35;5.72;;;4.88;;
4198;SDS011;2113;50.946;14.610;2022-09-23T08:04:05;6.95;;;4.55;;
4198;SDS011;2113;50.946;14.610;2022-09-23T08:06:37;6.55;;;4.82;;
4198;SDS011;2113;50.946;14.610;2022-09-23T08:09:08;7.15;;;5.75;;
4198;SDS011;2113;50.946;14.610;2022-09-23T08:11:36;7.05;;;5.20;;
4198;SDS011;2113;50.946;14.610;2022-09-23T08:14:07;8.48;;;4.18;;
4198;SDS011;2113;50.946;14.610;2022-09-23T08:16:36;5.60;;;4.43;;
4198;SDS011;2113;50.946;14.610;2022-09-23T08:19:05;6.22;;;4.32;;
4198;SDS011;2113;50.946;14.610;2022-09-23T08:21:33;5.75;;;4.35;;
4198;SDS011;2113;50.946;14.610;2022-09-23T08:24:04;6.57;;;4.82;;
4198;SDS011;2113;50.946;14.610;2022-09-23T08:26:34;7.13;;;3.80;;
4198;SDS011;2113;50.946;14.610;2022-09-23T08:29:03;5.10;;;3.97;;
4198;SDS011;2113;50.946;14.610;2022-09-23T08:31:31;6.10;;;4.15;;
4198;SDS011;2113;50.946;14.610;2022-09-23T08:33:59;6.65;;;4.65;;
4198;SDS011;2113;50.946;14.610;2022-09-23T08:36:27;3.95;;;3.05;;
4198;SDS011;2113;50.946;14.610;2022-09-23T08:38:55;5.05;;;3.45;;
4198;SDS011;2113;50.946;14.610;2022-09-23T08:41:25;2.90;;;2.30;;
4198;SDS011;2113;50.946;14.610;2022-09-23T08:44:03;6.90;;;2.75;;
4198;SDS011;2113;50.946;14.610;2022-09-23T08:46:39;5.07;;;3.13;;
4198;SDS011;2113;50.946;14.610;2022-09-23T08:49:13;3.90;;;2.75;;
4198;SDS011;2113;50.946;14.610;2022-09-23T08:51:47;4.20;;;2.80;;
4198;SDS011;2113;50.946;14.610;2022-09-23T08:54:16;3.90;;;3.03;;
4198;SDS011;2113;50.946;14.610;2022-09-23T08:56:45;3.53;;;2.78;;
4198;SDS011;2113;50.946;14.610;2022-09-23T08:59:19;3.78;;;3.28;;
4198;SDS011;2113;50.946;14.610;2022-09-23T09:01:55;5.28;;;2.92;;
4198;SDS011;2113;50.946;14.610;2022-09-23T09:04:26;4.75;;;2.85;;
4198;SDS011;2113;50.946;14.610;2022-09-23T09:07:09;5.45;;;2.90;;
4198;SDS011;2113;50.946;14.610;2022-09-23T09:10:02;5.88;;;3.75;;
4198;SDS011;2113;50.946;14.610;2022-09-23T09:12:38;4.28;;;2.83;;
4198;SDS011;2113;50.946;14.610;2022-09-23T09:15:12;5.25;;;3.33;;
4198;SDS011;2113;50.946;14.610;2022-09-23T09:17:44;4.03;;;2.88;;
4198;SDS011;2113;50.946;14.610;2022-09-23T09:20:20;5.88;;;3.58;;
4198;SDS011;2113;50.946;14.610;2022-09-23T09:22:53;5.00;;;3.70;;
4198;SDS011;2113;50.946;14.610;2022-09-23T09:25:34;4.05;;;2.85;;
4198;SDS011;2113;50.946;14.610;2022-09-23T09:28:08;3.53;;;2.42;;
4198;SDS011;2113;50.946;14.610;2022-09-23T09:30:43;3.45;;;2.80;;
4198;SDS011;2113;50.946;14.610;2022-09-23T09:33:39;3.85;;;2.97;;
4198;SDS011;2113;50.946;14.610;2022-09-23T09:36:14;5.15;;;2.90;;
4198;SDS011;2113;50.946;14.610;2022-09-23T09:38:56;3.70;;;3.00;;
4198;SDS011;2113;50.946;14.610;2022-09-23T09:41:25;4.78;;;3.45;;
4198;SDS011;2113;50.946;14.610;2022-09-23T09:43:56;5.28;;;2.72;;
4198;SDS011;2113;50.946;14.610;2022-09-23T09:46:34;3.92;;;2.70;;
4198;SDS011;2113;50.946;14.610;2022-09-23T09:49:13;3.20;;;2.70;;
4198;SDS011;2113;50.946;14.610;2022-09-23T09:51:57;4.75;;;3.60;;
4198;SDS011;2113;50.946;14.610;2022-09-23T09:54:38;3.80;;;2.60;;
4198;SDS011;2113;50.946;14.610;2022-09-23T09:57:10;5.75;;;3.05;;
4198;SDS011;2113;50.946;14.610;2022-09-23T09:59:45;6.75;;;2.97;;
4198;SDS011;2113;50.946;14.610;2022-09-23T10:02:20;8.35;;;3.33;;
4198;SDS011;2113;50.946;14.610;2022-09-23T10:04:53;4.85;;;2.95;;
4198;SDS011;2113;50.946;14.610;2022-09-23T10:07:25;6.97;;;3.53;;
4198;SDS011;2113;50.946;14.610;2022-09-23T10:09:54;5.70;;;3.58;;
4198;SDS011;2113;50.946;14.610;2022-09-23T10:12:41;3.88;;;2.67;;
4198;SDS011;2113;50.946;14.610;2022-09-23T10:15:24;4.53;;;3.33;;
4198;SDS011;2113;50.946;14.610;2022-09-23T10:17:57;4.10;;;2.95;;
4198;SDS011;2113;50.946;14.610;2022-09-23T10:20:32;4.38;;;2.70;;
4198;SDS011;2113;50.946;14.610;2022-09-23T10:23:04;4.60;;;3.00;;
4198;SDS011;2113;50.946;14.610;2022-09-23T10:25:34;4.75;;;3.03;;
4198;SDS011;2113;50.946;14.610;2022-09-23T10:31:07;3.95;;;2.45;;
4198;SDS011;2113;50.946;14.610;2022-09-23T10:33:40;3.55;;;2.25;;
4198;SDS011;2113;50.946;14.610;2022-09-23T10:36:14;4.93;;;2.38;;
4198;SDS011;2113;50.946;14.610;2022-09-23T10:38:42;4.47;;;2.90;;
4198;SDS011;2113;50.946;14.610;2022-09-23T10:41:12;3.28;;;2.55;;
4198;SDS011;2113;50.946;14.610;2022-09-23T10:44:08;4.00;;;2.30;;
4198;SDS011;2113;50.946;14.610;2022-09-23T10:47:07;3.47;;;2.40;;
4198;SDS011;2113;50.946;14.610;2022-09-23T10:52:37;3.17;;;2.17;;
4198;SDS011;2113;50.946;14.610;2022-09-23T10:55:15;3.53;;;2.83;;
4198;SDS011;2113;50.946;14.610;2022-09-23T10:58:21;4.18;;;2.67;;
4198;SDS011;2113;50.946;14.610;2022-09-23T11:01:03;3.40;;;2.40;;
4198;SDS011;2113;50.946;14.610;2022-09-23T11:03:56;4.00;;;2.40;;
4198;SDS011;2113;50.946;14.610;2022-09-23T11:06:42;3.78;;;2.20;;
4198;SDS011;2113;50.946;14.610;2022-09-23T11:09:23;3.00;;;2.22;;
4198;SDS011;2113;50.946;14.610;2022-09-23T11:12:02;4.53;;;2.83;;
4198;SDS011;2113;50.946;14.610;2022-09-23T11:14:43;4.68;;;2.20;;
4198;SDS011;2113;50.946;14.610;2022-09-23T11:17:23;3.47;;;2.38;;
4198;SDS011;2113;50.946;14.610;2022-09-23T11:20:10;3.95;;;2.55;;
4198;SDS011;2113;50.946;14.610;2022-09-23T11:22:53;3.72;;;2.55;;
4198;SDS011;2113;50.946;14.610;2022-09-23T11:25:45;4.03;;;2.10;;
4198;SDS011;2113;50.946;14.610;2022-09-23T11:28:24;4.15;;;2.58;;
4198;SDS011;2113;50.946;14.610;2022-09-23T11:31:06;2.83;;;1.75;;
4198;SDS011;2113;50.946;14.610;2022-09-23T11:33:50;4.25;;;1.33;;
4198;SDS011;2113;50.946;14.610;2022-09-23T11:36:34;2.28;;;1.60;;
4198;SDS011;2113;50.946;14.610;2022-09-23T11:39:10;2.25;;;1.40;;
4198;SDS011;2113;50.946;14.610;2022-09-23T11:41:41;3.03;;;1.58;;
4198;SDS011;2113;50.946;14.610;2022-09-23T11:44:12;3.22;;;2.45;;
4198;SDS011;2113;50.946;14.610;2022-09-23T11:46:46;6.50;;;2.42;;
4198;SDS011;2113;50.946;14.610;2022-09-23T11:49:18;5.05;;;2.28;;
4198;SDS011;2113;50.946;14.610;2022-09-23T11:51:59;2.17;;;1.55;;
4198;SDS011;2113;50.946;14.610;2022-09-23T11:54:34;2.33;;;1.42;;
4198;SDS011;2113;50.946;14.610;2022-09-23T11:57:13;3.55;;;1.88;;
4198;SDS011;2113;50.946;14.610;2022-09-23T11:59:51;3.65;;;2.10;;
4198;SDS011;2113;50.946;14.610;2022-09-23T12:02:25;3.10;;;2.33;;
4198;SDS011;2113;50.946;14.610;2022-09-23T12:05:00;3.20;;;2.30;;
4198;SDS011;2113;50.946;14.610;2022-09-23T12:07:37;3.17;;;2.20;;
4198;SDS011;2113;50.946;14.610;2022-09-23T12:10:14;5.30;;;2.17;;
4198;SDS011;2113;50.946;14.610;2022-09-23T12:12:46;2.58;;;1.70;;
4198;SDS011;2113;50.946;14.610;2022-09-23T12:15:26;4.03;;;1.50;;
4198;SDS011;2113;50.946;14.610;2022-09-23T12:18:09;2.60;;;1.73;;
4198;SDS011;2113;50.946;14.610;2022-09-23T12:20:57;3.20;;;1.70;;
4198;SDS011;2113;50.946;14.610;2022-09-23T12:24:21;3.35;;;1.75;;
4198;SDS011;2113;50.946;14.610;2022-09-23T12:27:00;3.40;;;2.35;;
4198;SDS011;2113;50.946;14.610;2022-09-23T12:29:33;3.45;;;2.10;;
4198;SDS011;2113;50.946;14.610;2022-09-23T12:32:04;2.55;;;1.90;;
4198;SDS011;2113;50.946;14.610;2022-09-23T12:34:37;4.43;;;2.00;;
4198;SDS011;2113;50.946;14.610;2022-09-23T12:37:19;4.38;;;2.17;;
4198;SDS011;2113;50.946;14.610;2022-09-23T12:39:51;4.40;;;2.22;;
4198;SDS011;2113;50.946;14.610;2022-09-23T12:42:21;7.15;;;2.45;;
4198;SDS011;2113;50.946;14.610;2022-09-23T12:47:46;2.88;;;2.15;;
4198;SDS011;2113;50.946;14.610;2022-09-23T12:56:56;3.47;;;2.20;;
4198;SDS011;2113;50.946;14.610;2022-09-23T12:59:30;3.33;;;2.13;;
4198;SDS011;2113;50.946;14.610;2022-09-23T13:02:23;4.47;;;2.45;;
4198;SDS011;2113;50.946;14.610;2022-09-23T13:04:56;4.25;;;3.35;;
4198;SDS011;2113;50.946;14.610;2022-09-23T13:07:47;5.05;;;3.28;;
4198;SDS011;2113;50.946;14.610;2022-09-23T13:10:26;4.15;;;3.08;;
4198;SDS011;2113;50.946;14.610;2022-09-23T13:12:57;5.78;;;2.53;;
4198;SDS011;2113;50.946;14.610;2022-09-23T13:15:29;3.80;;;2.80;;
4198;SDS011;2113;50.946;14.610;2022-09-23T13:21:14;3.22;;;2.33;;
4198;SDS011;2113;50.946;14.610;2022-09-23T13:26:46;3.58;;;2.80;;
4198;SDS011;2113;50.946;14.610;2022-09-23T13:29:18;3.85;;;2.28;;
4198;SDS011;2113;50.946;14.610;2022-09-23T13:31:52;5.55;;;2.97;;
4198;SDS011;2113;50.946;14.610;2022-09-23T13:34:23;4.10;;;3.00;;
4198;SDS011;2113;50.946;14.610;2022-09-23T13:36:57;4.65;;;3.33;;
4198;SDS011;2113;50.946;14.610;2022-09-23T13:39:26;5.45;;;3.13;;
4198;SDS011;2113;50.946;14.610;2022-09-23T13:41:57;4.18;;;2.67;;
4198;SDS011;2113;50.946;14.610;2022-09-23T13:44:28;4.40;;;3.17;;
4198;SDS011;2113;50.946;14.610;2022-09-23T13:46:58;4.90;;;2.90;;
4198;SDS011;2113;50.946;14.610;2022-09-23T13:49:29;6.22;;;3.45;;
4198;SDS011;2113;50.946;14.610;2022-09-23T13:52:01;3.50;;;2.38;;
4198;SDS011;2113;50.946;14.610;2022-09-23T13:54:30;4.35;;;2.85;;
4198;SDS011;2113;50.946;14.610;2022-09-23T13:57:01;3.88;;;2.90;;
4198;SDS011;2113;50.946;14.610;2022-09-23T13:59:34;5.18;;;2.92;;
4198;SDS011;2113;50.946;14.610;2022-09-23T14:02:09;3.83;;;3.00;;
4198;SDS011;2113;50.946;14.610;2022-09-23T14:04:38;4.40;;;3.10;;
4198;SDS011;2113;50.946;14.610;2022-09-23T14:07:06;4.20;;;3.60;;
4198;SDS011;2113;50.946;14.610;2022-09-23T14:09:36;3.97;;;2.97;;
4198;SDS011;2113;50.946;14.610;2022-09-23T14:12:08;3.95;;;3.13;;
4198;SDS011;2113;50.946;14.610;2022-09-23T14:14:37;6.88;;;3.28;;
4198;SDS011;2113;50.946;14.610;2022-09-23T14:17:12;4.65;;;3.15;;
4198;SDS011;2113;50.946;14.610;2022-09-23T14:19:44;6.25;;;3.08;;
4198;SDS011;2113;50.946;14.610;2022-09-23T14:22:20;5.43;;;4.10;;
4198;SDS011;2113;50.946;14.610;2022-09-23T14:24:50;4.35;;;2.70;;
4198;SDS011;2113;50.946;14.610;2022-09-23T14:27:20;4.38;;;3.00;;
4198;SDS011;2113;50.946;14.610;2022-09-23T14:29:53;6.18;;;3.20;;
4198;SDS011;2113;50.946;14.610;2022-09-23T14:32:24;5.20;;;2.83;;
4198;SDS011;2113;50.946;14.610;2022-09-23T14:35:04;4.53;;;3.42;;
4198;SDS011;2113;50.946;14.610;2022-09-23T14:37:38;5.40;;;3.70;;
4198;SDS011;2113;50.946;14.610;2022-09-23T14:40:26;4.22;;;3.10;;
4198;SDS011;2113;50.946;14.610;2022-09-23T14:42:56;4.38;;;3.00;;
4198;SDS011;2113;50.946;14.610;2022-09-23T14:45:28;4.15;;;2.85;;
4198;SDS011;2113;50.946;14.610;2022-09-23T14:48:00;4.22;;;2.92;;
4198;SDS011;2113;50.946;14.610;2022-09-23T14:50:32;7.95;;;3.83;;
4198;SDS011;2113;50.946;14.610;2022-09-23T14:56:13;3.97;;;2.50;;
4198;SDS011;2113;50.946;14.610;2022-09-23T14:58:45;4.47;;;3.05;;
4198;SDS011;2113;50.946;14.610;2022-09-23T15:04:16;4.65;;;3.10;;
4198;SDS011;2113;50.946;14.610;2022-09-23T15:06:56;3.28;;;2.22;;
4198;SDS011;2113;50.946;14.610;2022-09-23T15:09:27;5.65;;;3.10;;
4198;SDS011;2113;50.946;14.610;2022-09-23T15:11:58;3.78;;;2.45;;
4198;SDS011;2113;50.946;14.610;2022-09-23T15:14:29;4.28;;;2.63;;
4198;SDS011;2113;50.946;14.610;2022-09-23T15:17:10;5.53;;;3.25;;
4198;SDS011;2113;50.946;14.610;2022-09-23T15:19:44;3.67;;;2.80;;
4198;SDS011;2113;50.946;14.610;2022-09-23T15:22:18;5.25;;;2.72;;
4198;SDS011;2113;50.946;14.610;2022-09-23T15:24:46;4.22;;;2.72;;
4198;SDS011;2113;50.946;14.610;2022-09-23T15:27:25;4.38;;;2.95;;
4198;SDS011;2113;50.946;14.610;2022-09-23T15:30:00;3.60;;;2.22;;
4198;SDS011;2113;50.946;14.610;2022-09-23T15:32:40;3.85;;;3.15;;
4198;SDS011;2113;50.946;14.610;2022-09-23T15:35:12;5.43;;;3.22;;
4198;SDS011;2113;50.946;14.610;2022-09-23T15:37:42;4.00;;;2.80;;
4198;SDS011;2113;50.946;14.610;2022-09-23T15:40:14;5.45;;;2.92;;
4198;SDS011;2113;50.946;14.610;2022-09-23T15:42:46;4.65;;;2.78;;
4198;SDS011;2113;50.946;14.610;2022-09-23T15:45:17;6.53;;;3.85;;
4198;SDS011;2113;50.946;14.610;2022-09-23T15:47:48;4.47;;;2.80;;
4198;SDS011;2113;50.946;14.610;2022-09-23T15:50:19;4.40;;;2.50;;
4198;SDS011;2113;50.946;14.610;2022-09-23T15:52:47;5.15;;;2.83;;
4198;SDS011;2113;50.946;14.610;2022-09-23T15:55:15;4.40;;;2.65;;
4198;SDS011;2113;50.946;14.610;2022-09-23T15:57:44;3.55;;;2.10;;
4198;SDS011;2113;50.946;14.610;2022-09-23T16:00:12;3.53;;;2.17;;
4198;SDS011;2113;50.946;14.610;2022-09-23T16:02:41;3.75;;;2.35;;
4198;SDS011;2113;50.946;14.610;2022-09-23T16:05:23;4.35;;;2.33;;
4198;SDS011;2113;50.946;14.610;2022-09-23T16:07:56;3.10;;;1.95;;
4198;SDS011;2113;50.946;14.610;2022-09-23T16:10:24;4.30;;;2.80;;
4198;SDS011;2113;50.946;14.610;2022-09-23T16:12:52;6.90;;;3.65;;
4198;SDS011;2113;50.946;14.610;2022-09-23T16:15:22;9.25;;;2.92;;